Time;durP1;ratioP1;P1;durP2;ratioP2;P2;SDS_P1;SDS_P2;PMS_P1;PMS_P2;Temp;Humidity;BMP_temperature;BMP_pressure;BME280_temperature;BME280_humidity;BME280_pressure;Samples;Min_cycle;Max_cycle;Signal;HPM_P1;HPM_P2
2021/08/12 00:02:22;;;;;;;5.43;5.03;;;26.40;54.00;;;;;;4986235;28;20528;-49
2021/08/12 00:04:48;;;;;;;6.07;5.40;;;26.40;54.00;;;;;;4987224;28;20442;-48
2021/08/12 00:07:14;;;;;;;5.23;4.73;;;26.30;54.20;;;;;;4983658;28;20215;-46
2021/08/12 00:09:40;;;;;;;5.70;4.97;;;26.30;54.10;;;;;;4983459;28;21094;-48
2021/08/12 00:12:06;;;;;;;5.03;4.50;;;26.30;54.10;;;;;;4983248;28;20226;-50
2021/08/12 00:14:32;;;;;;;5.20;4.80;;;26.30;54.10;;;;;;4990112;28;20186;-50
2021/08/12 00:16:57;;;;;;;5.23;4.73;;;26.30;54.10;;;;;;4982683;28;20430;-45
2021/08/12 00:19:23;;;;;;;6.83;5.53;;;26.40;54.10;;;;;;4984916;28;20195;-49
2021/08/12 00:21:49;;;;;;;5.93;5.33;;;26.40;54.00;;;;;;4988205;28;20655;-50
2021/08/12 00:24:14;;;;;;;9.30;5.97;;;26.30;54.10;;;;;;4990467;28;20277;-49
2021/08/12 00:26:41;;;;;;;6.07;5.57;;;26.30;54.10;;;;;;4984489;28;20662;-45
2021/08/12 00:29:06;;;;;;;5.30;4.80;;;26.30;54.30;;;;;;4984511;28;20623;-47
2021/08/12 00:31:33;;;;;;;5.27;4.83;;;26.30;54.30;;;;;;4989339;28;20592;-50
2021/08/12 00:33:58;;;;;;;6.20;5.60;;;26.10;54.50;;;;;;4980790;28;20198;-49
2021/08/12 00:36:24;;;;;;;5.17;4.77;;;26.10;54.70;;;;;;4984019;28;20508;-45
2021/08/12 00:38:50;;;;;;;6.13;5.30;;;26.10;54.60;;;;;;4984983;28;20202;-49
2021/08/12 00:41:15;;;;;;;5.37;4.93;;;26.10;54.60;;;;;;4987230;28;20270;-50
2021/08/12 00:43:41;;;;;;;5.10;4.60;;;26.10;54.60;;;;;;4989765;28;20205;-51
2021/08/12 00:46:07;;;;;;;6.53;5.40;;;26.10;54.60;;;;;;4985038;28;20672;-47
2021/08/12 00:48:32;;;;;;;5.13;4.73;;;26.10;54.50;;;;;;4988423;28;20191;-46
2021/08/12 00:50:58;;;;;;;5.30;4.90;;;26.10;54.70;;;;;;4984380;28;20230;-50
2021/08/12 00:53:24;;;;;;;5.60;5.00;;;26.00;54.90;;;;;;4989903;28;20197;-50
2021/08/12 00:55:50;;;;;;;5.67;5.27;;;26.00;54.80;;;;;;4990071;28;20253;-49
2021/08/12 00:58:17;;;;;;;5.67;5.17;;;26.10;54.80;;;;;;4989862;28;20205;-47
2021/08/12 01:00:43;;;;;;;5.90;5.30;;;26.10;54.80;;;;;;4992747;28;20786;-50
2021/08/12 01:03:11;;;;;;;5.63;4.73;;;26.00;54.60;;;;;;4986372;28;20469;-47
2021/08/12 01:05:57;;;;;;;6.30;5.77;;;25.90;55.10;;;;;;4992837;28;20952;-49
2021/08/12 01:08:53;;;;;;;6.63;6.03;;;25.80;55.40;;;;;;4982957;28;20533;-50
2021/08/12 01:11:34;;;;;;;5.93;5.30;;;25.70;55.30;;;;;;4989432;28;20531;-48
2021/08/12 01:14:30;;;;;;;7.90;5.70;;;25.70;55.30;;;;;;4991785;28;20920;-49
2021/08/12 01:17:03;;;;;;;5.23;4.73;;;25.70;55.40;;;;;;4989198;28;20481;-49
2021/08/12 01:19:49;;;;;;;7.93;5.00;;;25.60;55.60;;;;;;4988355;28;20947;-49
2021/08/12 01:22:19;;;;;;;10.20;5.50;;;25.80;55.40;;;;;;4984288;28;20456;-46
2021/08/12 01:24:51;;;;;;;4.87;4.47;;;25.80;55.20;;;;;;4978190;28;20494;-50
2021/08/12 01:27:18;;;;;;;5.40;4.63;;;25.70;55.30;;;;;;4987250;28;20489;-50
2021/08/12 01:29:52;;;;;;;5.37;4.70;;;25.60;55.60;;;;;;4988376;28;20928;-48
2021/08/12 01:32:24;;;;;;;6.20;4.73;;;25.70;55.60;;;;;;4986026;28;20526;-50
2021/08/12 01:35:01;;;;;;;5.13;4.67;;;25.70;55.30;;;;;;4987142;28;20448;-51
2021/08/12 01:37:32;;;;;;;5.70;5.20;;;25.60;55.30;;;;;;4989173;28;20456;-49
2021/08/12 01:39:59;;;;;;;6.23;5.30;;;25.70;55.20;;;;;;4992210;28;20473;-50
2021/08/12 01:42:26;;;;;;;5.50;5.00;;;25.60;55.50;;;;;;4987131;28;20449;-49
2021/08/12 01:44:55;;;;;;;4.70;4.30;;;25.60;55.60;;;;;;4992347;28;20883;-49
2021/08/12 01:47:23;;;;;;;5.13;4.73;;;25.50;55.70;;;;;;4979892;28;20481;-50
2021/08/12 01:49:50;;;;;;;7.10;5.20;;;25.50;55.60;;;;;;4986837;28;20791;-50
2021/08/12 01:52:18;;;;;;;5.67;5.10;;;25.60;55.70;;;;;;4981724;28;20816;-45
2021/08/12 01:54:44;;;;;;;5.40;4.90;;;25.60;55.40;;;;;;4986792;28;20477;-46
2021/08/12 01:57:10;;;;;;;6.50;5.10;;;25.70;55.20;;;;;;4988827;28;20542;-45
2021/08/12 01:59:38;;;;;;;6.93;5.27;;;25.60;55.40;;;;;;4987608;28;21062;-46
2021/08/12 02:02:06;;;;;;;5.80;5.27;;;25.60;55.40;;;;;;4987263;28;20229;-45
2021/08/12 02:04:33;;;;;;;7.70;5.10;;;25.60;55.60;;;;;;4987627;28;20438;-45
2021/08/12 02:07:02;;;;;;;7.50;5.13;;;25.60;55.40;;;;;;4984008;28;20446;-47
2021/08/12 02:09:27;;;;;;;5.40;4.90;;;25.60;55.50;;;;;;4990729;28;20452;-45
2021/08/12 02:11:53;;;;;;;5.40;4.90;;;25.60;55.50;;;;;;4986283;28;20493;-45
2021/08/12 02:14:19;;;;;;;4.97;4.57;;;25.50;55.70;;;;;;4987240;28;20187;-48
2021/08/12 02:16:44;;;;;;;5.40;5.00;;;25.60;55.70;;;;;;4985432;28;20290;-45
2021/08/12 02:19:10;;;;;;;6.50;5.90;;;25.50;55.70;;;;;;4988061;28;20206;-45
2021/08/12 02:21:45;;;;;;;5.60;5.10;;;25.50;55.70;;;;;;4985581;28;20666;-45
2021/08/12 02:24:36;;;;;;;7.13;4.73;;;25.40;55.80;;;;;;4990100;28;20194;-45
2021/08/12 02:27:08;;;;;;;5.63;5.13;;;25.50;55.80;;;;;;4989879;28;20473;-45
2021/08/12 02:29:34;;;;;;;5.97;5.43;;;25.40;55.90;;;;;;4985276;28;20445;-49
2021/08/12 02:32:06;;;;;;;8.57;6.40;;;25.40;56.00;;;;;;4986303;28;20576;-46
2021/08/12 02:34:34;;;;;;;6.83;5.10;;;25.40;56.00;;;;;;4986917;28;20458;-48
2021/08/12 02:37:02;;;;;;;6.10;5.60;;;25.50;56.00;;;;;;4991580;28;20528;-45
2021/08/12 02:39:29;;;;;;;6.20;5.60;;;25.40;56.20;;;;;;4992236;28;20937;-45
2021/08/12 02:41:57;;;;;;;11.20;5.27;;;25.40;56.00;;;;;;4987228;28;20449;-45
2021/08/12 02:44:23;;;;;;;6.17;5.60;;;25.40;56.10;;;;;;4984309;28;20454;-46
2021/08/12 02:46:50;;;;;;;7.43;4.83;;;25.60;56.00;;;;;;4988644;28;20449;-47
2021/08/12 02:49:18;;;;;;;5.80;5.30;;;25.50;56.10;;;;;;4981608;28;20516;-46
2021/08/12 02:51:44;;;;;;;6.20;4.93;;;25.40;56.30;;;;;;4984908;28;20489;-47
2021/08/12 02:54:10;;;;;;;5.73;5.23;;;25.40;56.20;;;;;;4975608;28;20449;-46
2021/08/12 02:56:36;;;;;;;4.80;4.40;;;25.40;56.10;;;;;;4986349;28;20919;-46
2021/08/12 02:59:04;;;;;;;8.60;5.07;;;25.50;56.10;;;;;;4984930;28;20867;-46
2021/08/12 03:01:31;;;;;;;5.10;4.60;;;25.50;56.00;;;;;;4988937;28;20453;-46
2021/08/12 03:03:58;;;;;;;5.90;5.33;;;25.30;56.30;;;;;;4989784;28;20434;-45
2021/08/12 03:06:24;;;;;;;5.57;5.07;;;25.30;56.20;;;;;;4984902;28;20453;-45
2021/08/12 03:08:52;;;;;;;5.10;4.50;;;25.40;56.20;;;;;;4991786;28;20434;-47
2021/08/12 03:11:19;;;;;;;5.97;5.40;;;25.40;56.20;;;;;;4990603;28;20481;-45
2021/08/12 03:13:47;;;;;;;5.93;5.43;;;25.40;56.20;;;;;;4991262;28;20449;-45
2021/08/12 03:16:13;;;;;;;5.37;4.97;;;25.20;57.10;;;;;;4981383;28;20452;-45
2021/08/12 03:18:38;;;;;;;6.63;5.57;;;25.10;56.80;;;;;;4988358;28;20442;-46
2021/08/12 03:21:12;;;;;;;5.87;5.30;;;25.10;56.90;;;;;;4988801;28;20273;-47
2021/08/12 03:23:38;;;;;;;5.40;5.00;;;25.20;56.90;;;;;;4988855;28;20198;-49
2021/08/12 03:26:04;;;;;;;5.27;4.87;;;25.10;56.70;;;;;;4982867;28;20449;-45
2021/08/12 03:28:31;;;;;;;5.03;4.63;;;25.10;56.80;;;;;;4986608;28;20470;-45
2021/08/12 03:30:58;;;;;;;6.93;5.90;;;25.00;57.00;;;;;;4992151;28;20478;-45
2021/08/12 03:33:23;;;;;;;5.67;5.00;;;25.00;57.00;;;;;;4989545;28;20794;-45
2021/08/12 03:35:49;;;;;;;6.30;5.77;;;25.10;56.80;;;;;;4989472;28;20456;-45
2021/08/12 03:38:15;;;;;;;7.43;4.27;;;25.10;56.70;;;;;;4981808;28;20297;-45
2021/08/12 03:40:41;;;;;;;4.77;4.37;;;25.00;56.80;;;;;;4986179;28;21016;-45
2021/08/12 03:43:06;;;;;;;5.77;5.27;;;25.00;56.80;;;;;;4990034;28;20198;-46
2021/08/12 03:45:32;;;;;;;6.23;5.40;;;25.00;57.20;;;;;;4989443;28;20217;-46
2021/08/12 03:47:58;;;;;;;7.83;5.27;;;25.10;56.70;;;;;;4984543;28;20276;-45
2021/08/12 03:50:23;;;;;;;6.33;5.30;;;25.00;56.80;;;;;;4984399;28;20222;-45
2021/08/12 03:52:49;;;;;;;7.23;6.10;;;25.10;56.40;;;;;;4985468;28;20186;-45
2021/08/12 03:55:14;;;;;;;6.10;5.40;;;25.30;55.90;;;;;;4987733;28;20205;-45
2021/08/12 03:57:42;;;;;;;5.80;5.20;;;25.30;55.80;;;;;;4983379;28;20244;-48
2021/08/12 04:00:08;;;;;;;6.53;5.93;;;25.30;55.80;;;;;;4986375;28;20191;-47
2021/08/12 04:02:34;;;;;;;5.30;4.90;;;25.20;55.80;;;;;;4986848;28;21024;-45
2021/08/12 04:04:59;;;;;;;5.80;5.30;;;25.20;55.90;;;;;;4990999;28;21057;-48
2021/08/12 04:07:25;;;;;;;5.70;5.20;;;25.20;56.00;;;;;;4988746;28;20206;-46
2021/08/12 04:09:51;;;;;;;5.63;5.13;;;25.20;56.00;;;;;;4977886;28;20195;-46
2021/08/12 04:12:16;;;;;;;5.70;5.13;;;25.20;55.90;;;;;;4982773;28;20765;-47
2021/08/12 04:14:42;;;;;;;5.57;5.07;;;25.30;55.80;;;;;;4989430;28;20293;-45
2021/08/12 04:17:07;;;;;;;7.40;5.13;;;25.30;56.00;;;;;;4982332;28;20694;-47
2021/08/12 04:19:33;;;;;;;5.93;5.50;;;25.30;55.90;;;;;;4990662;28;20217;-46
2021/08/12 04:21:59;;;;;;;6.30;5.10;;;25.30;55.80;;;;;;4983050;28;20210;-49
2021/08/12 04:24:24;;;;;;;6.37;5.77;;;25.30;55.80;;;;;;4987156;28;20201;-45
2021/08/12 04:26:50;;;;;;;5.73;5.23;;;25.40;55.90;;;;;;4986061;28;20197;-46
2021/08/12 04:29:15;;;;;;;5.77;5.20;;;25.40;55.70;;;;;;4992680;28;20198;-46
2021/08/12 04:31:41;;;;;;;5.57;4.97;;;25.10;56.20;;;;;;4990443;28;20230;-46
2021/08/12 04:34:07;;;;;;;5.33;4.83;;;24.90;56.80;;;;;;4991563;28;20198;-45
2021/08/12 04:36:32;;;;;;;5.30;4.80;;;24.80;57.20;;;;;;4993219;28;20194;-45
2021/08/12 04:38:58;;;;;;;5.97;5.37;;;24.70;57.40;;;;;;4991599;28;20650;-47
2021/08/12 04:41:24;;;;;;;6.37;5.87;;;24.70;57.50;;;;;;4990612;28;20253;-50
2021/08/12 04:43:50;;;;;;;5.40;4.90;;;24.70;57.40;;;;;;4988827;28;20197;-47
2021/08/12 04:46:16;;;;;;;6.80;6.20;;;24.70;57.40;;;;;;4993218;28;20442;-46
2021/08/12 04:48:41;;;;;;;9.00;5.50;;;24.80;57.10;;;;;;4989662;28;20833;-45
2021/08/12 04:51:07;;;;;;;6.30;5.20;;;24.80;57.20;;;;;;4988127;28;20984;-46
2021/08/12 04:53:32;;;;;;;6.17;5.30;;;24.70;57.50;;;;;;4989362;28;20194;-45
2021/08/12 04:55:58;;;;;;;6.70;5.70;;;24.80;57.30;;;;;;4988205;28;20191;-47
2021/08/12 04:58:23;;;;;;;6.13;5.53;;;24.90;57.00;;;;;;4982027;28;20270;-49
2021/08/12 05:00:49;;;;;;;6.67;6.07;;;24.90;56.40;;;;;;4988343;28;20203;-48
2021/08/12 05:03:15;;;;;;;8.33;6.70;;;24.50;57.20;;;;;;4984997;28;20666;-47
2021/08/12 05:05:40;;;;;;;6.60;4.73;;;24.50;57.30;;;;;;4990726;28;20569;-50
2021/08/12 05:08:06;;;;;;;9.83;5.97;;;24.50;58.00;;;;;;4989764;28;20195;-45
2021/08/12 05:10:31;;;;;;;5.97;5.47;;;24.60;57.70;;;;;;4989702;28;20228;-46
2021/08/12 05:12:57;;;;;;;6.57;4.93;;;24.80;57.30;;;;;;4991774;28;20682;-45
2021/08/12 05:15:22;;;;;;;7.60;5.47;;;25.00;57.10;;;;;;4987606;28;20190;-45
2021/08/12 05:17:48;;;;;;;8.50;6.07;;;25.10;56.90;;;;;;4989706;28;20220;-44
2021/08/12 05:20:14;;;;;;;7.63;5.90;;;25.20;56.50;;;;;;4989212;28;20203;-45
2021/08/12 05:22:40;;;;;;;7.40;6.47;;;25.20;56.30;;;;;;4985824;28;20257;-45
2021/08/12 05:25:06;;;;;;;8.90;6.37;;;25.40;56.10;;;;;;4991930;28;20281;-45
2021/08/12 05:27:32;;;;;;;6.70;5.07;;;25.40;55.90;;;;;;4987781;28;20203;-46
2021/08/12 05:29:57;;;;;;;6.10;5.50;;;25.40;55.90;;;;;;4986048;28;20442;-45
2021/08/12 05:32:23;;;;;;;8.53;5.57;;;25.40;55.70;;;;;;4985767;28;20198;-44
2021/08/12 05:34:48;;;;;;;9.37;6.33;;;25.40;55.70;;;;;;4988263;28;20267;-45
2021/08/12 05:37:14;;;;;;;5.93;5.33;;;25.50;55.50;;;;;;4986475;28;20218;-49
2021/08/12 05:39:40;;;;;;;6.00;5.40;;;25.40;55.70;;;;;;4991035;28;20227;-49
2021/08/12 05:42:05;;;;;;;6.20;5.37;;;25.40;56.30;;;;;;4986431;28;20646;-46
2021/08/12 05:44:31;;;;;;;6.67;6.07;;;25.40;55.80;;;;;;4981801;28;20191;-45
2021/08/12 05:46:56;;;;;;;11.40;5.70;;;25.20;56.20;;;;;;4987007;28;20241;-46
2021/08/12 05:49:23;;;;;;;6.80;5.97;;;25.20;56.40;;;;;;4990082;28;20195;-49
2021/08/12 05:51:49;;;;;;;6.80;6.10;;;25.00;56.60;;;;;;4989524;28;20218;-45
2021/08/12 05:54:15;;;;;;;6.63;6.03;;;25.00;57.40;;;;;;4987263;28;20450;-46
2021/08/12 05:56:40;;;;;;;6.00;5.50;;;25.00;57.10;;;;;;4980968;28;20457;-48
2021/08/12 05:59:06;;;;;;;8.80;6.43;;;24.50;58.30;;;;;;4988116;28;20195;-45
2021/08/12 06:01:32;;;;;;;7.90;6.00;;;24.10;59.20;;;;;;4984214;28;20225;-46
2021/08/12 06:03:58;;;;;;;6.73;6.00;;;24.10;59.60;;;;;;4984850;28;20307;-45
2021/08/12 06:06:23;;;;;;;6.83;6.20;;;24.30;59.20;;;;;;4983322;28;20233;-45
2021/08/12 06:08:49;;;;;;;7.57;6.27;;;24.10;59.70;;;;;;4983972;28;20470;-47
2021/08/12 06:11:15;;;;;;;12.50;8.20;;;23.90;60.80;;;;;;4976078;28;20234;-46
2021/08/12 06:13:40;;;;;;;8.00;6.93;;;23.70;61.40;;;;;;4992653;28;20195;-45
2021/08/12 06:16:07;;;;;;;7.10;6.40;;;23.70;61.30;;;;;;4979334;28;20203;-45
2021/08/12 06:18:33;;;;;;;9.10;6.77;;;23.80;61.40;;;;;;4987682;28;20206;-46
2021/08/12 06:20:59;;;;;;;8.50;6.90;;;23.70;61.30;;;;;;4993260;28;20438;-45
2021/08/12 06:23:25;;;;;;;8.30;6.30;;;23.90;61.00;;;;;;4986742;28;20313;-45
2021/08/12 06:25:50;;;;;;;8.80;6.60;;;24.00;60.70;;;;;;4990548;28;20197;-45
2021/08/12 06:28:16;;;;;;;7.00;6.30;;;24.10;60.20;;;;;;4992530;28;20599;-47
2021/08/12 06:30:42;;;;;;;6.37;5.73;;;24.20;60.20;;;;;;4980256;28;20231;-46
2021/08/12 06:33:08;;;;;;;8.63;6.37;;;24.20;60.30;;;;;;4973831;28;20938;-46
2021/08/12 06:35:35;;;;;;;7.97;6.07;;;24.30;60.00;;;;;;4983947;28;20198;-45
2021/08/12 06:38:02;;;;;;;8.07;6.53;;;24.30;60.00;;;;;;4972040;28;20203;-50
2021/08/12 06:40:28;;;;;;;8.83;7.03;;;24.30;60.90;;;;;;4986442;28;20485;-45
2021/08/12 06:42:54;;;;;;;9.17;6.87;;;24.00;61.10;;;;;;4992897;28;20847;-50
2021/08/12 06:45:20;;;;;;;6.60;5.80;;;23.90;62.20;;;;;;4990635;28;20474;-47
2021/08/12 06:47:49;;;;;;;8.27;6.60;;;23.60;62.60;;;;;;4991800;28;20560;-45
2021/08/12 06:50:16;;;;;;;8.27;7.17;;;23.60;63.70;;;;;;4991924;28;20600;-45
2021/08/12 06:52:42;;;;;;;9.27;6.27;;;23.80;63.60;;;;;;4980008;28;20454;-46
2021/08/12 06:55:08;;;;;;;6.43;5.70;;;23.70;63.90;;;;;;4973516;28;20894;-48
2021/08/12 06:57:34;;;;;;;6.90;6.27;;;23.90;63.60;;;;;;4973136;28;20195;-45
2021/08/12 07:00:00;;;;;;;6.10;5.60;;;24.10;62.30;;;;;;4985600;28;20453;-49
2021/08/12 07:02:26;;;;;;;11.57;7.17;;;24.50;61.30;;;;;;4985686;28;20446;-49
2021/08/12 07:04:51;;;;;;;7.47;6.60;;;24.50;60.70;;;;;;4988028;28;20202;-48
2021/08/12 07:07:17;;;;;;;6.83;6.23;;;24.30;61.30;;;;;;4983128;28;20334;-45
2021/08/12 07:09:42;;;;;;;7.00;5.77;;;24.30;61.70;;;;;;4989653;28;20195;-47
2021/08/12 07:12:09;;;;;;;6.23;5.63;;;24.60;61.30;;;;;;4986527;28;20246;-49
2021/08/12 07:14:35;;;;;;;15.50;6.80;;;24.90;60.20;;;;;;4987729;28;20210;-48
2021/08/12 07:17:00;;;;;;;6.93;6.23;;;25.10;59.50;;;;;;4980288;28;20447;-45
2021/08/12 07:19:27;;;;;;;6.50;5.90;;;25.30;59.20;;;;;;4985898;28;20195;-48
2021/08/12 07:21:53;;;;;;;8.43;5.80;;;25.60;58.70;;;;;;4987245;28;20198;-47
2021/08/12 07:24:19;;;;;;;7.57;6.77;;;25.50;58.00;;;;;;4985547;28;20523;-46
2021/08/12 07:26:47;;;;;;;6.80;6.10;;;25.60;57.90;;;;;;4986847;28;20193;-48
2021/08/12 07:29:13;;;;;;;8.57;6.30;;;25.60;58.10;;;;;;4991797;28;20199;-45
2021/08/12 07:31:39;;;;;;;8.50;6.30;;;25.60;58.20;;;;;;4984607;28;21020;-49
2021/08/12 07:34:04;;;;;;;7.07;6.23;;;25.70;57.90;;;;;;4992823;28;20561;-49
2021/08/12 07:36:30;;;;;;;7.03;6.07;;;25.90;57.40;;;;;;4991133;28;20238;-49
2021/08/12 07:38:55;;;;;;;7.63;6.93;;;25.80;57.30;;;;;;4976683;28;20277;-48
2021/08/12 07:41:21;;;;;;;10.13;6.70;;;25.80;57.80;;;;;;4978204;28;20553;-47
2021/08/12 07:43:47;;;;;;;8.47;6.53;;;26.20;57.40;;;;;;4979344;28;20195;-50
2021/08/12 07:46:12;;;;;;;6.33;5.70;;;26.40;57.30;;;;;;4989948;28;20597;-49
2021/08/12 07:48:40;;;;;;;6.60;5.40;;;26.40;56.90;;;;;;4992013;28;20248;-50
2021/08/12 07:51:06;;;;;;;6.80;5.90;;;26.70;56.10;;;;;;4987168;28;20230;-48
2021/08/12 07:53:32;;;;;;;6.50;5.83;;;26.90;55.60;;;;;;4978131;28;20470;-50
2021/08/12 07:55:58;;;;;;;7.10;6.50;;;27.20;55.40;;;;;;4987362;28;20481;-50
2021/08/12 07:58:24;;;;;;;6.70;5.90;;;27.40;54.50;;;;;;4984645;28;20194;-46
2021/08/12 08:00:49;;;;;;;6.60;6.00;;;27.60;54.30;;;;;;4991042;28;20183;-49
2021/08/12 08:03:16;;;;;;;6.27;5.77;;;27.70;54.30;;;;;;4987846;28;20437;-50
2021/08/12 08:05:41;;;;;;;5.67;5.27;;;27.90;54.10;;;;;;4996015;28;20213;-45
2021/08/12 08:08:07;;;;;;;7.27;5.87;;;27.90;53.90;;;;;;4988989;28;20450;-47
2021/08/12 08:10:34;;;;;;;7.50;5.97;;;28.00;53.40;;;;;;4988957;28;20309;-50
2021/08/12 08:13:00;;;;;;;6.70;6.10;;;28.10;53.10;;;;;;4994103;28;20604;-46
2021/08/12 08:15:26;;;;;;;6.20;5.60;;;28.30;52.70;;;;;;4993073;28;20448;-49
2021/08/12 08:17:52;;;;;;;5.70;5.20;;;28.20;52.90;;;;;;4993844;28;20288;-49
2021/08/12 08:20:18;;;;;;;6.43;5.90;;;28.10;53.20;;;;;;4992454;28;20477;-49
2021/08/12 08:22:44;;;;;;;6.07;5.57;;;28.30;53.60;;;;;;4990011;28;20277;-47
2021/08/12 08:25:11;;;;;;;6.40;5.77;;;28.50;53.00;;;;;;4986681;28;21430;-47
2021/08/12 08:27:37;;;;;;;9.73;6.20;;;28.50;51.90;;;;;;4995020;28;20208;-48
2021/08/12 08:30:04;;;;;;;6.30;5.80;;;28.60;52.20;;;;;;4994980;28;20472;-47
2021/08/12 08:32:29;;;;;;;5.97;5.37;;;28.80;52.10;;;;;;4992742;28;20441;-47
2021/08/12 08:34:55;;;;;;;6.10;5.50;;;29.00;52.10;;;;;;4990971;28;20439;-49
2021/08/12 08:37:22;;;;;;;6.90;5.30;;;29.10;51.30;;;;;;4988048;28;20277;-48
2021/08/12 08:39:48;;;;;;;6.00;5.40;;;29.30;51.10;;;;;;4995801;28;20437;-49
2021/08/12 08:42:13;;;;;;;8.50;6.13;;;29.50;51.20;;;;;;4995276;28;20936;-49
2021/08/12 08:44:42;;;;;;;6.90;5.80;;;29.60;51.20;;;;;;4993774;28;20233;-49
2021/08/12 08:47:09;;;;;;;8.33;5.57;;;29.70;51.10;;;;;;4988326;28;20205;-48
2021/08/12 08:49:38;;;;;;;11.37;6.13;;;29.80;50.80;;;;;;4993630;28;20442;-47
2021/08/12 08:52:08;;;;;;;7.23;5.37;;;29.80;50.40;;;;;;4980690;28;20493;-49
2021/08/12 08:54:34;;;;;;;5.87;5.37;;;29.90;50.40;;;;;;4995497;28;20425;-48
2021/08/12 08:57:00;;;;;;;6.33;5.47;;;30.10;50.20;;;;;;4990123;28;20532;-49
2021/08/12 08:59:26;;;;;;;5.07;4.67;;;30.20;50.00;;;;;;4979052;28;20489;-50
2021/08/12 09:01:52;;;;;;;8.10;5.20;;;30.30;49.70;;;;;;4991567;28;20480;-46
2021/08/12 09:04:18;;;;;;;6.33;5.40;;;30.40;49.20;;;;;;4986978;28;20449;-46
2021/08/12 09:06:43;;;;;;;8.73;5.87;;;30.30;49.70;;;;;;4980665;28;20225;-48
2021/08/12 09:09:10;;;;;;;6.43;5.90;;;30.40;49.00;;;;;;4994096;28;20222;-46
2021/08/12 09:11:36;;;;;;;7.47;5.30;;;30.60;49.00;;;;;;4979199;28;20243;-46
2021/08/12 09:14:37;;;;;;;5.70;5.10;;;30.90;48.50;;;;;;4989251;28;20955;-45
2021/08/12 09:17:18;;;;;;;5.80;4.87;;;31.10;49.20;;;;;;4988803;28;20197;-45
2021/08/12 09:20:15;;;;;;;5.83;5.33;;;31.20;47.70;;;;;;4986428;28;20831;-46
2021/08/12 09:22:58;;;;;;;6.00;5.13;;;31.30;47.10;;;;;;4983508;28;20739;-46
2021/08/12 09:25:29;;;;;;;5.97;5.23;;;31.60;46.70;;;;;;4984358;28;20486;-44
2021/08/12 09:28:10;;;;;;;5.70;5.20;;;31.80;46.80;;;;;;4984600;28;20862;-46
2021/08/12 09:30:36;;;;;;;6.10;5.27;;;31.90;46.60;;;;;;4985625;28;20544;-44
2021/08/12 09:33:02;;;;;;;5.80;5.30;;;32.10;47.50;;;;;;4992407;28;21019;-45
2021/08/12 09:35:27;;;;;;;5.67;5.17;;;31.90;46.20;;;;;;4985788;28;20324;-45
2021/08/12 09:38:06;;;;;;;7.03;5.03;;;31.90;46.40;;;;;;4987545;28;21687;-44
2021/08/12 09:40:31;;;;;;;5.20;4.80;;;32.20;46.50;;;;;;4989920;28;20193;-44
2021/08/12 09:43:02;;;;;;;6.10;5.67;;;32.40;45.80;;;;;;4977027;28;20454;-51
2021/08/12 09:45:30;;;;;;;5.20;4.70;;;32.10;44.70;;;;;;4986147;28;20666;-45
2021/08/12 09:48:07;;;;;;;6.50;5.40;;;32.20;45.60;;;;;;4983865;28;20442;-46
2021/08/12 09:50:35;;;;;;;5.73;5.23;;;32.50;45.70;;;;;;4977704;28;20510;-46
2021/08/12 09:53:01;;;;;;;6.07;5.47;;;32.80;45.20;;;;;;4985210;28;20508;-47
2021/08/12 09:55:27;;;;;;;11.23;5.40;;;33.00;44.50;;;;;;4985383;28;20540;-46
2021/08/12 09:57:55;;;;;;;6.70;6.10;;;32.70;44.20;;;;;;4987744;28;20564;-46
2021/08/12 10:00:32;;;;;;;5.60;5.10;;;32.80;43.90;;;;;;4985292;28;20261;-46
2021/08/12 10:02:59;;;;;;;7.20;6.33;;;33.00;44.40;;;;;;4986709;28;20456;-48
2021/08/12 10:05:25;;;;;;;6.50;5.90;;;33.20;44.50;;;;;;4986170;28;20440;-45
2021/08/12 10:07:55;;;;;;;5.90;5.40;;;33.30;43.90;;;;;;4983984;28;20816;-47
2021/08/12 10:10:23;;;;;;;6.40;5.80;;;33.40;42.40;;;;;;4985485;28;20222;-45
2021/08/12 10:12:55;;;;;;;8.30;5.40;;;33.50;43.10;;;;;;4990766;28;20993;-45
2021/08/12 10:15:30;;;;;;;6.53;6.00;;;33.50;41.80;;;;;;4979180;28;20453;-47
2021/08/12 10:17:57;;;;;;;6.37;5.77;;;33.90;42.20;;;;;;4988120;28;20956;-46
2021/08/12 10:20:30;;;;;;;6.00;5.50;;;34.00;41.50;;;;;;4980749;28;20453;-46
2021/08/12 10:22:57;;;;;;;7.30;5.93;;;33.30;41.20;;;;;;4982616;28;20454;-45
2021/08/12 10:25:24;;;;;;;7.80;6.07;;;33.10;42.80;;;;;;4978480;28;20446;-46
2021/08/12 10:27:55;;;;;;;4.90;4.50;;;33.40;42.30;;;;;;4984699;28;20840;-48
2021/08/12 10:30:22;;;;;;;9.30;6.17;;;33.70;42.20;;;;;;4979608;28;20902;-49
2021/08/12 10:33:00;;;;;;;7.90;5.70;;;34.00;42.60;;;;;;4981402;28;20456;-49
2021/08/12 10:35:28;;;;;;;6.80;6.00;;;34.20;41.80;;;;;;4991190;28;20474;-45
2021/08/12 10:37:55;;;;;;;5.37;4.97;;;34.20;40.70;;;;;;4984684;28;20460;-46
2021/08/12 10:40:27;;;;;;;6.23;5.63;;;33.90;40.40;;;;;;4979761;28;20458;-49
2021/08/12 10:42:55;;;;;;;8.00;6.20;;;33.50;41.00;;;;;;4986677;28;20803;-45
2021/08/12 10:45:22;;;;;;;6.27;5.40;;;33.90;41.40;;;;;;4987179;28;20471;-46
2021/08/12 10:47:56;;;;;;;7.10;5.03;;;33.90;40.70;;;;;;4981270;28;20477;-46
2021/08/12 10:50:34;;;;;;;6.03;5.53;;;34.10;41.40;;;;;;4986506;28;20492;-45
2021/08/12 10:53:04;;;;;;;7.23;5.27;;;34.40;40.20;;;;;;4975461;28;20457;-47
2021/08/12 10:55:30;;;;;;;6.57;6.07;;;34.70;39.90;;;;;;4989590;28;20875;-45
2021/08/12 10:58:33;;;;;;;6.80;6.20;;;35.00;39.50;;;;;;4991497;28;20537;-45
2021/08/12 11:00:59;;;;;;;7.77;5.23;;;35.10;38.90;;;;;;4967058;28;20501;-46
2021/08/12 11:03:34;;;;;;;5.60;5.20;;;35.20;39.40;;;;;;4987162;28;20477;-47
2021/08/12 11:06:06;;;;;;;5.77;5.20;;;35.30;39.00;;;;;;4981553;28;21036;-45
2021/08/12 11:08:49;;;;;;;6.30;5.80;;;35.40;38.60;;;;;;4976941;28;20586;-46
2021/08/12 11:11:21;;;;;;;6.23;5.60;;;35.50;38.80;;;;;;4984032;28;20548;-46
2021/08/12 11:13:52;;;;;;;7.43;5.30;;;35.50;38.70;;;;;;4986945;28;20442;-45
2021/08/12 11:16:19;;;;;;;7.50;5.37;;;35.60;38.50;;;;;;4979977;28;20443;-48
2021/08/12 11:19:05;;;;;;;6.00;5.50;;;35.80;38.80;;;;;;4982348;28;20801;-45
2021/08/12 11:21:31;;;;;;;7.03;5.93;;;35.90;36.30;;;;;;4989591;28;20449;-46
2021/08/12 11:24:04;;;;;;;11.50;6.07;;;35.60;35.90;;;;;;4979702;28;20462;-45
2021/08/12 11:26:41;;;;;;;6.57;5.80;;;35.70;36.40;;;;;;4978843;28;20277;-45
2021/08/12 11:29:28;;;;;;;6.53;5.70;;;35.60;35.90;;;;;;4992304;28;20802;-46
2021/08/12 11:31:59;;;;;;;7.10;5.70;;;35.90;36.70;;;;;;4979440;28;20497;-49
2021/08/12 11:34:50;;;;;;;6.47;5.87;;;36.20;36.90;;;;;;4986696;28;20501;-45
2021/08/12 11:37:22;;;;;;;6.33;5.73;;;36.40;35.80;;;;;;4981638;28;20974;-45
2021/08/12 11:40:03;;;;;;;6.40;5.83;;;36.50;36.00;;;;;;4980031;28;20457;-45
2021/08/12 11:42:34;;;;;;;5.73;5.23;;;36.60;35.40;;;;;;4983070;28;20458;-45
2021/08/12 11:45:04;;;;;;;6.50;5.90;;;36.80;35.10;;;;;;4986150;28;20469;-46
2021/08/12 11:47:30;;;;;;;7.80;6.00;;;36.90;35.80;;;;;;4975353;28;20941;-50
2021/08/12 11:49:57;;;;;;;9.70;6.67;;;36.80;35.50;;;;;;4977218;28;20821;-50
2021/08/12 11:52:32;;;;;;;5.97;5.47;;;36.90;36.80;;;;;;4980889;28;20576;-46
2021/08/12 11:55:17;;;;;;;6.53;5.80;;;37.10;36.80;;;;;;4978685;28;20453;-47
2021/08/12 11:57:52;;;;;;;7.67;6.77;;;37.10;35.20;;;;;;4984270;28;20444;-47
2021/08/12 12:00:23;;;;;;;6.63;6.00;;;37.30;34.40;;;;;;4979681;28;20461;-47
2021/08/12 12:02:54;;;;;;;7.43;5.73;;;37.30;34.30;;;;;;4979522;28;20445;-50
2021/08/12 12:05:26;;;;;;;7.63;6.43;;;37.20;33.70;;;;;;4980017;28;20556;-49
2021/08/12 12:08:05;;;;;;;6.80;6.20;;;37.10;32.90;;;;;;4983774;28;20809;-46
2021/08/12 12:10:37;;;;;;;7.33;6.60;;;37.20;33.10;;;;;;4981510;28;20465;-47
2021/08/12 12:13:10;;;;;;;6.70;6.00;;;37.30;33.40;;;;;;4977638;28;20485;-47
2021/08/12 12:15:38;;;;;;;12.27;6.40;;;37.30;32.40;;;;;;4986788;28;20995;-47
2021/08/12 12:18:04;;;;;;;7.77;7.07;;;37.10;33.60;;;;;;4984750;28;20442;-48
2021/08/12 12:20:30;;;;;;;7.50;6.80;;;37.20;33.50;;;;;;4986887;28;20452;-50
2021/08/12 12:22:56;;;;;;;6.90;6.33;;;37.30;32.60;;;;;;4986059;28;20250;-51
2021/08/12 12:25:21;;;;;;;7.30;6.80;;;37.00;32.90;;;;;;4982843;28;21259;-47
2021/08/12 12:27:47;;;;;;;7.40;6.27;;;36.50;32.50;;;;;;4985321;28;20367;-47
2021/08/12 12:30:15;;;;;;;7.87;5.83;;;36.60;32.90;;;;;;4981559;28;20192;-48
2021/08/12 12:32:43;;;;;;;6.40;5.80;;;36.60;33.00;;;;;;4981622;28;20576;-49
2021/08/12 12:35:11;;;;;;;6.93;6.07;;;36.70;33.80;;;;;;4982802;28;20438;-48
2021/08/12 12:37:39;;;;;;;6.60;6.03;;;36.80;34.10;;;;;;4985787;28;20808;-47
2021/08/12 12:40:09;;;;;;;6.67;6.17;;;37.10;33.60;;;;;;4985120;28;20489;-46
2021/08/12 12:42:36;;;;;;;12.80;6.73;;;37.30;31.70;;;;;;4987243;28;20438;-47
2021/08/12 12:45:08;;;;;;;9.97;6.80;;;37.50;31.10;;;;;;4986764;28;20456;-47
2021/08/12 12:47:35;;;;;;;6.73;5.93;;;37.50;30.50;;;;;;4989663;28;20584;-47
2021/08/12 12:50:03;;;;;;;7.67;6.63;;;37.70;30.50;;;;;;4988086;28;21073;-49
2021/08/12 12:52:29;;;;;;;7.73;7.13;;;37.80;30.10;;;;;;4992760;28;20894;-47